sensor_id;sensor_type;location;lat;lon;timestamp;noise_LAeq;noise_LA_min;noise_LA_max;noise_LA01;noise_LA95
76382;Laerm;65202;52.520;10.528;2023-09-19T00:00:58;40.81;34.50;52.32;;
76382;Laerm;65202;52.520;10.528;2023-09-19T00:03:25;39.67;33.86;52.64;;
76382;Laerm;65202;52.520;10.528;2023-09-19T00:05:53;40.53;33.02;63.75;;
76382;Laerm;65202;52.520;10.528;2023-09-19T00:08:22;40.74;34.06;54.03;;
76382;Laerm;65202;52.520;10.528;2023-09-19T00:10:49;39.70;33.24;51.74;;
76382;Laerm;65202;52.520;10.528;2023-09-19T00:13:16;40.05;33.71;63.33;;
76382;Laerm;65202;52.520;10.528;2023-09-19T00:15:47;39.62;33.79;52.60;;
76382;Laerm;65202;52.520;10.528;2023-09-19T00:18:20;40.43;33.62;60.65;;
76382;Laerm;65202;52.520;10.528;2023-09-19T00:20:51;40.76;33.62;51.97;;
76382;Laerm;65202;52.520;10.528;2023-09-19T00:23:20;40.02;33.88;61.42;;
76382;Laerm;65202;52.520;10.528;2023-09-19T00:25:48;40.08;34.13;52.40;;
76382;Laerm;65202;52.520;10.528;2023-09-19T00:28:18;41.10;34.80;61.10;;
76382;Laerm;65202;52.520;10.528;2023-09-19T00:30:47;41.05;34.91;51.65;;
76382;Laerm;65202;52.520;10.528;2023-09-19T00:33:18;41.06;34.03;57.12;;
76382;Laerm;65202;52.520;10.528;2023-09-19T00:35:57;39.69;33.85;62.98;;
76382;Laerm;65202;52.520;10.528;2023-09-19T00:38:24;39.78;34.12;53.07;;
76382;Laerm;65202;52.520;10.528;2023-09-19T00:40:56;39.64;33.66;51.84;;
76382;Laerm;65202;52.520;10.528;2023-09-19T00:43:27;39.38;32.28;52.87;;
76382;Laerm;65202;52.520;10.528;2023-09-19T00:45:56;40.73;32.73;52.21;;
76382;Laerm;65202;52.520;10.528;2023-09-19T00:48:25;39.66;33.03;52.72;;
76382;Laerm;65202;52.520;10.528;2023-09-19T00:50:58;39.84;32.95;51.88;;
76382;Laerm;65202;52.520;10.528;2023-09-19T00:53:27;40.68;33.73;52.32;;
76382;Laerm;65202;52.520;10.528;2023-09-19T00:55:58;39.64;33.80;52.70;;
76382;Laerm;65202;52.520;10.528;2023-09-19T00:58:26;40.72;34.49;52.96;;
76382;Laerm;65202;52.520;10.528;2023-09-19T01:00:59;39.58;32.60;51.77;;
76382;Laerm;65202;52.520;10.528;2023-09-19T01:03:28;40.30;34.39;52.43;;
76382;Laerm;65202;52.520;10.528;2023-09-19T01:05:56;40.63;31.98;52.80;;
76382;Laerm;65202;52.520;10.528;2023-09-19T01:08:23;40.15;33.47;52.26;;
76382;Laerm;65202;52.520;10.528;2023-09-19T01:11:02;39.85;33.34;53.34;;
76382;Laerm;65202;52.520;10.528;2023-09-19T01:13:57;40.73;33.98;52.70;;
76382;Laerm;65202;52.520;10.528;2023-09-19T01:16:47;40.95;35.58;52.18;;
76382;Laerm;65202;52.520;10.528;2023-09-19T01:20:17;40.09;34.50;51.83;;
76382;Laerm;65202;52.520;10.528;2023-09-19T01:23:11;40.35;33.54;52.58;;
76382;Laerm;65202;52.520;10.528;2023-09-19T01:26:04;40.52;35.09;52.54;;
76382;Laerm;65202;52.520;10.528;2023-09-19T01:29:12;40.38;34.98;52.63;;
76382;Laerm;65202;52.520;10.528;2023-09-19T01:31:49;41.80;35.40;53.16;;
76382;Laerm;65202;52.520;10.528;2023-09-19T01:34:16;41.45;35.14;52.52;;
76382;Laerm;65202;52.520;10.528;2023-09-19T01:36:45;39.94;33.17;52.32;;
76382;Laerm;65202;52.520;10.528;2023-09-19T01:39:13;40.51;34.53;52.91;;
76382;Laerm;65202;52.520;10.528;2023-09-19T01:42:05;40.49;34.31;53.02;;
76382;Laerm;65202;52.520;10.528;2023-09-19T01:47:28;41.22;35.38;52.67;;
76382;Laerm;65202;52.520;10.528;2023-09-19T01:53:00;40.03;34.19;52.17;;
76382;Laerm;65202;52.520;10.528;2023-09-19T01:55:39;41.35;35.58;52.83;;
76382;Laerm;65202;52.520;10.528;2023-09-19T01:58:21;41.01;35.05;52.80;;
76382;Laerm;65202;52.520;10.528;2023-09-19T02:00:50;41.26;35.78;53.36;;
76382;Laerm;65202;52.520;10.528;2023-09-19T02:03:22;41.35;35.46;53.23;;
76382;Laerm;65202;52.520;10.528;2023-09-19T02:05:53;40.87;34.99;52.67;;
76382;Laerm;65202;52.520;10.528;2023-09-19T02:08:22;41.40;35.43;52.45;;
76382;Laerm;65202;52.520;10.528;2023-09-19T02:10:51;42.00;35.93;53.55;;
76382;Laerm;65202;52.520;10.528;2023-09-19T02:13:21;41.61;35.72;56.03;;
76382;Laerm;65202;52.520;10.528;2023-09-19T02:15:52;42.00;37.12;59.51;;
76382;Laerm;65202;52.520;10.528;2023-09-19T02:18:19;43.86;37.62;53.01;;
76382;Laerm;65202;52.520;10.528;2023-09-19T02:20:50;41.88;35.94;52.30;;
76382;Laerm;65202;52.520;10.528;2023-09-19T02:23:23;41.67;35.47;53.37;;
76382;Laerm;65202;52.520;10.528;2023-09-19T02:25:54;42.74;36.65;54.12;;
76382;Laerm;65202;52.520;10.528;2023-09-19T02:28:28;41.08;35.48;53.22;;
76382;Laerm;65202;52.520;10.528;2023-09-19T02:30:59;41.15;35.09;52.10;;
76382;Laerm;65202;52.520;10.528;2023-09-19T02:33:28;41.62;35.87;53.74;;
76382;Laerm;65202;52.520;10.528;2023-09-19T02:36:00;38.71;35.28;47.78;;
76382;Laerm;65202;52.520;10.528;2023-09-19T02:38:28;44.14;35.51;56.16;;
76382;Laerm;65202;52.520;10.528;2023-09-19T02:40:56;40.90;34.68;53.28;;
76382;Laerm;65202;52.520;10.528;2023-09-19T02:43:23;41.03;34.98;52.76;;
76382;Laerm;65202;52.520;10.528;2023-09-19T02:45:51;41.22;35.48;51.69;;
76382;Laerm;65202;52.520;10.528;2023-09-19T02:48:22;41.18;35.54;53.25;;
76382;Laerm;65202;52.520;10.528;2023-09-19T02:50:50;41.27;35.39;52.94;;
76382;Laerm;65202;52.520;10.528;2023-09-19T02:53:18;40.95;35.22;52.88;;
76382;Laerm;65202;52.520;10.528;2023-09-19T02:55:47;41.09;34.57;53.46;;
76382;Laerm;65202;52.520;10.528;2023-09-19T02:58:15;41.73;36.15;54.68;;
76382;Laerm;65202;52.520;10.528;2023-09-19T03:00:43;41.78;36.81;52.50;;
76382;Laerm;65202;52.520;10.528;2023-09-19T03:03:14;41.34;35.93;53.97;;
76382;Laerm;65202;52.520;10.528;2023-09-19T03:05:44;42.82;36.67;52.90;;
76382;Laerm;65202;52.520;10.528;2023-09-19T03:08:16;41.11;35.28;53.05;;
76382;Laerm;65202;52.520;10.528;2023-09-19T03:10:47;42.43;37.05;53.26;;
76382;Laerm;65202;52.520;10.528;2023-09-19T03:13:15;42.20;36.52;53.37;;
76382;Laerm;65202;52.520;10.528;2023-09-19T03:15:43;42.30;36.23;52.38;;
76382;Laerm;65202;52.520;10.528;2023-09-19T03:18:18;41.71;35.96;53.45;;
76382;Laerm;65202;52.520;10.528;2023-09-19T03:20:53;41.85;35.74;53.08;;
76382;Laerm;65202;52.520;10.528;2023-09-19T03:23:23;43.02;37.18;53.33;;
76382;Laerm;65202;52.520;10.528;2023-09-19T03:25:50;44.59;37.25;57.35;;
76382;Laerm;65202;52.520;10.528;2023-09-19T03:28:20;46.54;38.17;61.95;;
76382;Laerm;65202;52.520;10.528;2023-09-19T03:31:06;42.46;36.77;52.73;;
76382;Laerm;65202;52.520;10.528;2023-09-19T03:33:35;43.25;37.94;56.42;;
76382;Laerm;65202;52.520;10.528;2023-09-19T03:36:03;45.65;38.08;59.52;;
76382;Laerm;65202;52.520;10.528;2023-09-19T03:38:34;42.50;37.19;53.35;;
76382;Laerm;65202;52.520;10.528;2023-09-19T03:41:02;44.02;37.81;54.30;;
76382;Laerm;65202;52.520;10.528;2023-09-19T03:43:32;42.36;35.99;53.41;;
76382;Laerm;65202;52.520;10.528;2023-09-19T03:46:03;43.31;37.08;53.48;;
76382;Laerm;65202;52.520;10.528;2023-09-19T03:48:32;42.39;36.57;53.07;;
76382;Laerm;65202;52.520;10.528;2023-09-19T03:51:15;43.77;38.65;52.51;;
76382;Laerm;65202;52.520;10.528;2023-09-19T03:53:46;43.75;37.89;52.88;;
76382;Laerm;65202;52.520;10.528;2023-09-19T03:56:16;43.55;38.12;57.51;;
76382;Laerm;65202;52.520;10.528;2023-09-19T03:58:43;43.46;38.30;55.15;;
76382;Laerm;65202;52.520;10.528;2023-09-19T04:01:10;43.30;38.32;53.01;;
76382;Laerm;65202;52.520;10.528;2023-09-19T04:03:38;42.74;37.92;53.12;;
76382;Laerm;65202;52.520;10.528;2023-09-19T04:06:24;43.75;37.92;55.55;;
76382;Laerm;65202;52.520;10.528;2023-09-19T04:09:10;43.94;38.36;52.80;;
76382;Laerm;65202;52.520;10.528;2023-09-19T04:11:40;43.20;38.06;55.04;;
76382;Laerm;65202;52.520;10.528;2023-09-19T04:14:11;45.44;39.44;58.84;;
76382;Laerm;65202;52.520;10.528;2023-09-19T04:16:42;43.04;37.91;58.59;;
76382;Laerm;65202;52.520;10.528;2023-09-19T04:19:09;44.17;39.26;52.83;;
76382;Laerm;65202;52.520;10.528;2023-09-19T04:21:37;45.34;39.58;53.45;;
76382;Laerm;65202;52.520;10.528;2023-09-19T04:24:04;44.07;39.15;52.97;;
76382;Laerm;65202;52.520;10.528;2023-09-19T04:26:32;43.59;38.12;54.31;;
76382;Laerm;65202;52.520;10.528;2023-09-19T04:29:00;43.86;39.52;52.72;;
76382;Laerm;65202;52.520;10.528;2023-09-19T04:31:28;46.81;38.29;59.43;;
76382;Laerm;65202;52.520;10.528;2023-09-19T04:33:56;44.30;39.17;56.13;;
76382;Laerm;65202;52.520;10.528;2023-09-19T04:36:24;44.02;39.19;52.52;;
76382;Laerm;65202;52.520;10.528;2023-09-19T04:39:03;49.24;40.20;66.81;;
76382;Laerm;65202;52.520;10.528;2023-09-19T04:41:34;43.88;38.68;53.05;;
76382;Laerm;65202;52.520;10.528;2023-09-19T04:44:01;47.83;38.70;66.16;;
76382;Laerm;65202;52.520;10.528;2023-09-19T04:46:29;45.75;40.72;56.68;;
76382;Laerm;65202;52.520;10.528;2023-09-19T04:48:56;47.73;40.02;65.11;;
76382;Laerm;65202;52.520;10.528;2023-09-19T04:51:24;48.17;38.21;62.21;;
76382;Laerm;65202;52.520;10.528;2023-09-19T04:53:51;45.10;39.68;53.67;;
76382;Laerm;65202;52.520;10.528;2023-09-19T04:56:18;44.67;38.85;55.74;;
76382;Laerm;65202;52.520;10.528;2023-09-19T04:58:46;48.02;41.08;65.54;;
76382;Laerm;65202;52.520;10.528;2023-09-19T05:01:14;46.48;40.27;57.20;;
76382;Laerm;65202;52.520;10.528;2023-09-19T05:03:42;50.48;37.67;73.13;;
76382;Laerm;65202;52.520;10.528;2023-09-19T05:06:09;48.90;39.63;64.99;;
76382;Laerm;65202;52.520;10.528;2023-09-19T05:08:37;47.42;40.66;58.86;;
76382;Laerm;65202;52.520;10.528;2023-09-19T05:11:04;44.97;39.38;54.01;;
76382;Laerm;65202;52.520;10.528;2023-09-19T05:13:31;50.76;39.66;65.79;;
76382;Laerm;65202;52.520;10.528;2023-09-19T05:16:02;46.70;40.86;67.69;;
76382;Laerm;65202;52.520;10.528;2023-09-19T05:18:30;45.33;40.19;59.05;;
76382;Laerm;65202;52.520;10.528;2023-09-19T05:21:02;45.90;41.00;58.57;;
76382;Laerm;65202;52.520;10.528;2023-09-19T05:23:30;44.90;38.69;59.42;;
76382;Laerm;65202;52.520;10.528;2023-09-19T05:25:58;45.54;38.24;62.97;;
76382;Laerm;65202;52.520;10.528;2023-09-19T05:28:27;47.75;39.22;66.68;;
76382;Laerm;65202;52.520;10.528;2023-09-19T05:30:54;48.13;39.79;67.86;;
76382;Laerm;65202;52.520;10.528;2023-09-19T05:33:22;48.05;41.63;62.07;;
76382;Laerm;65202;52.520;10.528;2023-09-19T05:35:49;46.84;40.14;55.88;;
76382;Laerm;65202;52.520;10.528;2023-09-19T05:38:16;50.52;40.08;64.81;;
76382;Laerm;65202;52.520;10.528;2023-09-19T05:40:46;48.82;40.05;65.36;;
76382;Laerm;65202;52.520;10.528;2023-09-19T05:43:13;47.36;40.65;60.71;;
76382;Laerm;65202;52.520;10.528;2023-09-19T05:45:43;46.30;41.19;54.03;;
76382;Laerm;65202;52.520;10.528;2023-09-19T05:48:14;47.32;40.71;58.64;;
76382;Laerm;65202;52.520;10.528;2023-09-19T05:50:43;45.05;38.70;53.33;;
76382;Laerm;65202;52.520;10.528;2023-09-19T05:53:14;44.89;39.68;57.52;;
76382;Laerm;65202;52.520;10.528;2023-09-19T05:55:42;46.04;41.09;54.28;;
76382;Laerm;65202;52.520;10.528;2023-09-19T05:58:10;45.96;39.73;57.12;;
76382;Laerm;65202;52.520;10.528;2023-09-19T06:00:41;51.74;39.65;69.93;;
76382;Laerm;65202;52.520;10.528;2023-09-19T06:03:10;45.55;40.36;58.18;;
76382;Laerm;65202;52.520;10.528;2023-09-19T06:05:39;49.21;41.93;60.64;;
76382;Laerm;65202;52.520;10.528;2023-09-19T06:08:08;46.18;40.27;64.20;;
76382;Laerm;65202;52.520;10.528;2023-09-19T06:10:36;52.62;39.15;69.85;;
76382;Laerm;65202;52.520;10.528;2023-09-19T06:13:04;45.41;39.73;54.49;;
76382;Laerm;65202;52.520;10.528;2023-09-19T06:15:32;47.58;39.93;64.51;;
76382;Laerm;65202;52.520;10.528;2023-09-19T06:18:00;45.50;40.16;58.22;;
76382;Laerm;65202;52.520;10.528;2023-09-19T06:20:29;45.53;40.00;58.16;;
76382;Laerm;65202;52.520;10.528;2023-09-19T06:22:57;46.75;40.48;62.75;;
76382;Laerm;65202;52.520;10.528;2023-09-19T06:25:24;44.81;39.27;58.03;;
76382;Laerm;65202;52.520;10.528;2023-09-19T06:27:52;44.31;38.50;54.25;;
76382;Laerm;65202;52.520;10.528;2023-09-19T06:30:24;43.92;39.16;52.63;;
76382;Laerm;65202;52.520;10.528;2023-09-19T06:33:00;44.50;39.12;53.03;;
76382;Laerm;65202;52.520;10.528;2023-09-19T06:35:29;44.72;38.93;62.42;;
76382;Laerm;65202;52.520;10.528;2023-09-19T06:38:03;45.14;39.57;59.16;;
76382;Laerm;65202;52.520;10.528;2023-09-19T06:40:31;45.00;39.40;54.82;;
76382;Laerm;65202;52.520;10.528;2023-09-19T06:42:58;45.43;39.98;55.24;;
76382;Laerm;65202;52.520;10.528;2023-09-19T06:45:28;46.54;40.05;74.54;;
76382;Laerm;65202;52.520;10.528;2023-09-19T06:47:56;44.49;39.05;61.33;;
76382;Laerm;65202;52.520;10.528;2023-09-19T06:50:26;45.33;38.64;57.65;;
76382;Laerm;65202;52.520;10.528;2023-09-19T06:52:55;45.94;39.90;63.82;;
76382;Laerm;65202;52.520;10.528;2023-09-19T06:55:25;43.73;38.86;52.23;;
76382;Laerm;65202;52.520;10.528;2023-09-19T06:57:56;43.54;37.59;52.21;;
76382;Laerm;65202;52.520;10.528;2023-09-19T07:00:23;44.27;39.43;53.48;;
76382;Laerm;65202;52.520;10.528;2023-09-19T07:03:10;43.64;38.71;52.13;;
76382;Laerm;65202;52.520;10.528;2023-09-19T07:05:40;44.22;39.08;55.58;;
76382;Laerm;65202;52.520;10.528;2023-09-19T07:08:09;48.11;39.99;63.36;;
76382;Laerm;65202;52.520;10.528;2023-09-19T07:10:41;47.93;39.24;60.52;;
76382;Laerm;65202;52.520;10.528;2023-09-19T07:13:09;46.88;39.55;57.06;;
76382;Laerm;65202;52.520;10.528;2023-09-19T07:15:39;51.31;40.03;68.51;;
76382;Laerm;65202;52.520;10.528;2023-09-19T07:18:08;45.34;40.54;53.53;;
76382;Laerm;65202;52.520;10.528;2023-09-19T07:20:38;49.53;41.07;69.06;;
76382;Laerm;65202;52.520;10.528;2023-09-19T07:23:05;52.11;43.83;64.81;;
76382;Laerm;65202;52.520;10.528;2023-09-19T07:25:35;50.30;42.31;66.56;;
76382;Laerm;65202;52.520;10.528;2023-09-19T07:28:03;46.59;40.93;57.92;;
76382;Laerm;65202;52.520;10.528;2023-09-19T07:30:30;44.82;39.79;53.74;;
76382;Laerm;65202;52.520;10.528;2023-09-19T07:32:58;48.28;40.18;63.21;;
76382;Laerm;65202;52.520;10.528;2023-09-19T07:35:25;49.18;42.16;65.09;;
76382;Laerm;65202;52.520;10.528;2023-09-19T07:37:52;46.35;39.38;63.90;;
76382;Laerm;65202;52.520;10.528;2023-09-19T07:40:20;46.62;39.24;55.84;;
76382;Laerm;65202;52.520;10.528;2023-09-19T07:42:48;47.53;40.71;55.81;;
76382;Laerm;65202;52.520;10.528;2023-09-19T07:45:16;47.85;41.72;66.41;;
76382;Laerm;65202;52.520;10.528;2023-09-19T07:47:46;46.36;39.74;63.03;;
76382;Laerm;65202;52.520;10.528;2023-09-19T07:50:18;48.42;42.11;66.58;;
76382;Laerm;65202;52.520;10.528;2023-09-19T07:52:48;49.37;41.44;67.75;;
76382;Laerm;65202;52.520;10.528;2023-09-19T07:55:15;55.70;41.64;69.20;;
76382;Laerm;65202;52.520;10.528;2023-09-19T07:57:44;46.71;40.13;56.43;;
76382;Laerm;65202;52.520;10.528;2023-09-19T08:00:12;48.45;42.19;56.15;;
76382;Laerm;65202;52.520;10.528;2023-09-19T08:02:41;48.88;43.01;56.42;;
76382;Laerm;65202;52.520;10.528;2023-09-19T08:05:11;47.25;42.03;56.15;;
76382;Laerm;65202;52.520;10.528;2023-09-19T08:07:42;47.65;41.96;55.56;;
76382;Laerm;65202;52.520;10.528;2023-09-19T08:10:09;47.26;41.98;58.43;;
76382;Laerm;65202;52.520;10.528;2023-09-19T08:12:40;47.98;40.27;62.49;;
76382;Laerm;65202;52.520;10.528;2023-09-19T08:15:19;48.02;42.14;55.75;;
76382;Laerm;65202;52.520;10.528;2023-09-19T08:17:48;48.10;42.76;55.53;;
76382;Laerm;65202;52.520;10.528;2023-09-19T08:20:16;48.50;43.42;55.36;;
76382;Laerm;65202;52.520;10.528;2023-09-19T08:22:49;49.94;41.68;63.17;;
76382;Laerm;65202;52.520;10.528;2023-09-19T08:25:22;57.65;40.61;81.91;;
76382;Laerm;65202;52.520;10.528;2023-09-19T08:27:50;53.65;41.88;69.60;;
76382;Laerm;65202;52.520;10.528;2023-09-19T08:30:22;51.88;41.10;78.41;;
76382;Laerm;65202;52.520;10.528;2023-09-19T08:33:01;47.56;42.00;55.37;;
76382;Laerm;65202;52.520;10.528;2023-09-19T08:35:28;48.66;41.06;58.58;;
76382;Laerm;65202;52.520;10.528;2023-09-19T08:37:56;48.62;42.33;65.67;;
76382;Laerm;65202;52.520;10.528;2023-09-19T08:40:24;46.15;40.13;56.32;;
76382;Laerm;65202;52.520;10.528;2023-09-19T08:42:54;50.33;44.52;58.59;;
76382;Laerm;65202;52.520;10.528;2023-09-19T08:45:25;50.82;42.29;65.00;;
76382;Laerm;65202;52.520;10.528;2023-09-19T08:48:26;50.83;41.66;65.91;;
76382;Laerm;65202;52.520;10.528;2023-09-19T08:51:06;46.02;39.65;64.23;;
76382;Laerm;65202;52.520;10.528;2023-09-19T08:53:58;50.48;39.04;67.80;;
76382;Laerm;65202;52.520;10.528;2023-09-19T08:56:28;49.88;43.85;58.82;;
76382;Laerm;65202;52.520;10.528;2023-09-19T08:59:04;47.60;42.69;58.43;;
76382;Laerm;65202;52.520;10.528;2023-09-19T09:01:35;51.18;42.65;66.14;;
76382;Laerm;65202;52.520;10.528;2023-09-19T09:04:10;47.80;42.74;64.13;;
76382;Laerm;65202;52.520;10.528;2023-09-19T09:06:42;53.07;43.75;73.26;;
76382;Laerm;65202;52.520;10.528;2023-09-19T09:09:11;49.44;40.97;65.79;;
76382;Laerm;65202;52.520;10.528;2023-09-19T09:11:38;58.91;42.67;78.31;;
76382;Laerm;65202;52.520;10.528;2023-09-19T09:14:07;51.06;45.34;58.33;;
76382;Laerm;65202;52.520;10.528;2023-09-19T09:16:35;50.46;40.61;61.10;;
76382;Laerm;65202;52.520;10.528;2023-09-19T09:19:02;51.88;44.61;66.36;;
76382;Laerm;65202;52.520;10.528;2023-09-19T09:21:30;55.03;42.63;74.28;;
76382;Laerm;65202;52.520;10.528;2023-09-19T09:24:30;54.04;45.19;72.64;;
76382;Laerm;65202;52.520;10.528;2023-09-19T09:27:04;51.57;46.66;63.24;;
76382;Laerm;65202;52.520;10.528;2023-09-19T09:29:50;51.51;46.22;69.39;;
76382;Laerm;65202;52.520;10.528;2023-09-19T09:32:29;51.14;42.15;63.81;;
76382;Laerm;65202;52.520;10.528;2023-09-19T09:34:59;52.77;43.00;71.73;;
76382;Laerm;65202;52.520;10.528;2023-09-19T09:37:29;51.96;46.38;63.87;;
76382;Laerm;65202;52.520;10.528;2023-09-19T09:40:02;51.86;47.50;64.45;;
76382;Laerm;65202;52.520;10.528;2023-09-19T09:42:42;52.15;47.61;70.95;;
76382;Laerm;65202;52.520;10.528;2023-09-19T09:45:22;51.46;45.35;66.50;;
76382;Laerm;65202;52.520;10.528;2023-09-19T09:48:04;52.35;46.10;64.38;;
76382;Laerm;65202;52.520;10.528;2023-09-19T09:50:49;50.22;42.66;62.52;;
76382;Laerm;65202;52.520;10.528;2023-09-19T09:53:27;52.29;43.19;63.75;;
76382;Laerm;65202;52.520;10.528;2023-09-19T09:58:28;54.23;48.60;77.38;;
76382;Laerm;65202;52.520;10.528;2023-09-19T10:00:59;50.94;44.88;60.92;;
76382;Laerm;65202;52.520;10.528;2023-09-19T10:03:40;54.13;45.40;65.32;;
76382;Laerm;65202;52.520;10.528;2023-09-19T10:06:13;50.91;44.49;64.04;;
76382;Laerm;65202;52.520;10.528;2023-09-19T10:09:09;57.79;45.14;75.67;;
76382;Laerm;65202;52.520;10.528;2023-09-19T10:11:46;49.00;42.51;58.95;;
76382;Laerm;65202;52.520;10.528;2023-09-19T10:14:17;58.19;42.53;74.48;;
76382;Laerm;65202;52.520;10.528;2023-09-19T10:16:53;48.36;42.80;62.14;;
76382;Laerm;65202;52.520;10.528;2023-09-19T10:19:36;51.12;45.26;66.61;;
76382;Laerm;65202;52.520;10.528;2023-09-19T10:22:05;51.17;44.99;60.09;;
76382;Laerm;65202;52.520;10.528;2023-09-19T10:24:36;49.00;42.33;55.95;;
76382;Laerm;65202;52.520;10.528;2023-09-19T10:27:19;47.50;42.43;61.37;;
76382;Laerm;65202;52.520;10.528;2023-09-19T10:29:49;48.89;40.18;61.87;;
76382;Laerm;65202;52.520;10.528;2023-09-19T10:32:23;46.42;39.89;56.87;;
76382;Laerm;65202;52.520;10.528;2023-09-19T10:34:51;50.68;43.80;60.23;;
76382;Laerm;65202;52.520;10.528;2023-09-19T10:37:24;46.06;41.07;55.34;;
76382;Laerm;65202;52.520;10.528;2023-09-19T10:39:56;46.11;40.16;52.98;;
76382;Laerm;65202;52.520;10.528;2023-09-19T10:42:25;48.53;43.51;65.64;;
76382;Laerm;65202;52.520;10.528;2023-09-19T10:44:57;48.46;40.79;68.22;;
76382;Laerm;65202;52.520;10.528;2023-09-19T10:47:27;47.46;42.33;55.01;;
76382;Laerm;65202;52.520;10.528;2023-09-19T10:49:55;50.27;41.73;65.62;;
76382;Laerm;65202;52.520;10.528;2023-09-19T10:52:26;48.00;42.27;54.36;;
76382;Laerm;65202;52.520;10.528;2023-09-19T10:54:58;48.02;42.71;54.21;;
76382;Laerm;65202;52.520;10.528;2023-09-19T10:57:28;52.08;42.57;67.45;;
76382;Laerm;65202;52.520;10.528;2023-09-19T11:00:08;50.44;42.71;63.42;;
76382;Laerm;65202;52.520;10.528;2023-09-19T11:05:40;53.23;43.87;70.28;;
76382;Laerm;65202;52.520;10.528;2023-09-19T11:08:09;52.24;42.04;65.78;;
76382;Laerm;65202;52.520;10.528;2023-09-19T11:10:49;51.07;44.21;60.00;;
76382;Laerm;65202;52.520;10.528;2023-09-19T11:13:30;51.81;45.48;63.83;;
76382;Laerm;65202;52.520;10.528;2023-09-19T11:16:05;51.33;43.71;59.70;;
76382;Laerm;65202;52.520;10.528;2023-09-19T11:26:49;48.18;40.38;66.25;;
76382;Laerm;65202;52.520;10.528;2023-09-19T11:29:29;50.31;42.01;62.16;;
76382;Laerm;65202;52.520;10.528;2023-09-19T11:31:58;48.80;43.18;61.82;;
76382;Laerm;65202;52.520;10.528;2023-09-19T11:40:09;49.20;40.94;60.71;;
76382;Laerm;65202;52.520;10.528;2023-09-19T11:42:46;50.23;41.54;67.37;;
76382;Laerm;65202;52.520;10.528;2023-09-19T11:48:24;50.01;43.90;64.90;;
76382;Laerm;65202;52.520;10.528;2023-09-19T11:50:56;50.83;43.95;64.88;;
76382;Laerm;65202;52.520;10.528;2023-09-19T11:53:31;60.53;45.13;78.38;;
76382;Laerm;65202;52.520;10.528;2023-09-19T11:56:06;49.17;40.74;61.05;;
76382;Laerm;65202;52.520;10.528;2023-09-19T11:58:37;49.81;40.84;61.19;;
76382;Laerm;65202;52.520;10.528;2023-09-19T12:01:06;52.44;45.33;64.29;;
76382;Laerm;65202;52.520;10.528;2023-09-19T12:03:37;53.17;45.13;63.11;;
76382;Laerm;65202;52.520;10.528;2023-09-19T12:06:12;52.66;43.81;64.83;;
76382;Laerm;65202;52.520;10.528;2023-09-19T12:08:44;47.91;41.26;60.03;;
76382;Laerm;65202;52.520;10.528;2023-09-19T12:11:15;49.49;44.16;58.19;;
76382;Laerm;65202;52.520;10.528;2023-09-19T12:13:47;53.65;45.97;68.67;;
76382;Laerm;65202;52.520;10.528;2023-09-19T12:16:18;51.49;46.77;56.31;;
76382;Laerm;65202;52.520;10.528;2023-09-19T12:18:50;51.05;44.66;66.32;;
76382;Laerm;65202;52.520;10.528;2023-09-19T12:21:31;50.22;43.74;70.89;;
76382;Laerm;65202;52.520;10.528;2023-09-19T12:26:39;51.45;43.08;63.52;;
76382;Laerm;65202;52.520;10.528;2023-09-19T12:29:21;51.81;46.60;62.59;;
76382;Laerm;65202;52.520;10.528;2023-09-19T12:31:49;53.72;46.91;66.89;;
76382;Laerm;65202;52.520;10.528;2023-09-19T12:34:22;53.37;47.43;66.02;;
76382;Laerm;65202;52.520;10.528;2023-09-19T12:37:10;55.31;44.04;77.30;;
76382;Laerm;65202;52.520;10.528;2023-09-19T12:39:52;50.02;43.54;63.85;;
76382;Laerm;65202;52.520;10.528;2023-09-19T12:42:26;48.04;42.32;56.60;;
76382;Laerm;65202;52.520;10.528;2023-09-19T12:44:59;49.76;43.71;62.91;;
76382;Laerm;65202;52.520;10.528;2023-09-19T12:47:28;52.18;44.14;65.26;;
76382;Laerm;65202;52.520;10.528;2023-09-19T12:50:17;49.61;41.97;63.44;;
76382;Laerm;65202;52.520;10.528;2023-09-19T12:52:50;51.35;43.09;67.44;;
76382;Laerm;65202;52.520;10.528;2023-09-19T12:55:29;50.71;42.09;63.73;;
76382;Laerm;65202;52.520;10.528;2023-09-19T13:00:40;50.51;44.97;56.74;;
76382;Laerm;65202;52.520;10.528;2023-09-19T13:03:26;49.33;43.79;58.27;;
76382;Laerm;65202;52.520;10.528;2023-09-19T13:06:02;53.10;43.37;69.20;;
76382;Laerm;65202;52.520;10.528;2023-09-19T13:08:38;52.56;43.96;76.58;;
76382;Laerm;65202;52.520;10.528;2023-09-19T13:11:15;46.81;41.25;59.50;;
76382;Laerm;65202;52.520;10.528;2023-09-19T13:13:49;47.10;41.58;56.12;;
76382;Laerm;65202;52.520;10.528;2023-09-19T13:16:21;50.31;44.33;61.05;;
76382;Laerm;65202;52.520;10.528;2023-09-19T13:18:53;52.00;42.60;68.14;;
76382;Laerm;65202;52.520;10.528;2023-09-19T13:21:32;52.79;41.83;71.90;;
76382;Laerm;65202;52.520;10.528;2023-09-19T13:24:24;51.30;42.14;68.40;;
76382;Laerm;65202;52.520;10.528;2023-09-19T13:26:56;48.21;42.71;57.58;;
76382;Laerm;65202;52.520;10.528;2023-09-19T13:29:24;51.37;41.97;74.93;;
76382;Laerm;65202;52.520;10.528;2023-09-19T13:31:52;50.19;43.09;67.80;;
76382;Laerm;65202;52.520;10.528;2023-09-19T13:34:20;51.16;41.04;70.97;;
76382;Laerm;65202;52.520;10.528;2023-09-19T13:36:48;50.91;43.26;72.80;;
76382;Laerm;65202;52.520;10.528;2023-09-19T13:39:16;50.93;40.89;68.11;;
76382;Laerm;65202;52.520;10.528;2023-09-19T13:41:45;47.95;42.11;60.00;;
76382;Laerm;65202;52.520;10.528;2023-09-19T13:44:14;47.30;42.35;54.29;;
76382;Laerm;65202;52.520;10.528;2023-09-19T13:46:43;52.35;43.61;66.80;;
76382;Laerm;65202;52.520;10.528;2023-09-19T13:49:14;48.47;44.36;55.73;;
76382;Laerm;65202;52.520;10.528;2023-09-19T13:51:42;51.99;41.22;69.17;;
76382;Laerm;65202;52.520;10.528;2023-09-19T13:54:11;49.03;40.52;73.97;;
76382;Laerm;65202;52.520;10.528;2023-09-19T13:56:39;49.93;45.12;62.11;;
76382;Laerm;65202;52.520;10.528;2023-09-19T13:59:07;54.60;43.32;85.67;;
76382;Laerm;65202;52.520;10.528;2023-09-19T14:01:34;54.38;43.58;72.08;;
76382;Laerm;65202;52.520;10.528;2023-09-19T14:04:01;49.45;42.75;58.57;;
76382;Laerm;65202;52.520;10.528;2023-09-19T14:06:29;48.81;42.08;63.49;;
76382;Laerm;65202;52.520;10.528;2023-09-19T14:08:56;46.72;42.12;64.26;;
76382;Laerm;65202;52.520;10.528;2023-09-19T14:11:23;52.56;45.01;69.91;;
76382;Laerm;65202;52.520;10.528;2023-09-19T14:13:51;53.26;43.36;67.46;;
76382;Laerm;65202;52.520;10.528;2023-09-19T14:16:22;54.62;43.96;71.43;;
76382;Laerm;65202;52.520;10.528;2023-09-19T14:18:52;50.06;44.72;56.57;;
76382;Laerm;65202;52.520;10.528;2023-09-19T14:21:19;49.48;44.76;54.37;;
76382;Laerm;65202;52.520;10.528;2023-09-19T14:23:46;47.99;42.98;67.02;;
76382;Laerm;65202;52.520;10.528;2023-09-19T14:26:15;58.40;44.49;77.16;;
76382;Laerm;65202;52.520;10.528;2023-09-19T14:28:44;58.00;43.63;76.43;;
76382;Laerm;65202;52.520;10.528;2023-09-19T14:31:12;52.28;46.16;68.00;;